createdAt,value
2017-02-12T00:01:04.261Z,5.15
2017-02-12T00:02:14.631Z,5.31
2017-02-12T00:03:25.009Z,5.15
2017-02-12T00:04:35.782Z,5.3
2017-02-12T00:05:46.197Z,5.28
2017-02-12T00:06:55.755Z,5.24
2017-02-12T00:08:06.505Z,5.16
2017-02-12T00:09:16.853Z,5.21
2017-02-12T00:10:27.610Z,5.27
2017-02-12T00:11:38.356Z,5.21
2017-02-12T00:12:48.723Z,5.28
2017-02-12T00:13:59.476Z,5.34
2017-02-12T00:15:09.826Z,5.21
2017-02-12T00:16:20.572Z,5.28
2017-02-12T00:17:31.370Z,5.39
2017-02-12T00:18:42.101Z,5.28
2017-02-12T00:19:52.481Z,5.34
2017-02-12T00:21:02.840Z,5.36
2017-02-12T00:22:12.812Z,5.31
2017-02-12T00:23:22.770Z,5.39
2017-02-12T00:24:33.163Z,5.36
2017-02-12T00:25:43.520Z,5.37
2017-02-12T00:26:53.902Z,5.31
2017-02-12T00:28:04.658Z,5.28
2017-02-12T00:29:15.073Z,5.34
2017-02-12T00:30:25.440Z,5.27
2017-02-12T00:31:36.186Z,5.34
2017-02-12T00:32:46.929Z,5.46
2017-02-12T00:33:57.707Z,5.39
2017-02-12T00:35:08.452Z,5.42
2017-02-12T00:36:19.226Z,5.37
2017-02-12T00:37:29.982Z,5.31
2017-02-12T00:38:39.935Z,5.33
2017-02-12T00:39:50.283Z,5.28
2017-02-12T00:41:01.021Z,5.28
2017-02-12T00:42:11.411Z,5.3
2017-02-12T00:43:22.153Z,5.34
2017-02-12T00:44:32.914Z,5.3
2017-02-12T00:45:43.664Z,5.3
2017-02-12T00:46:54.470Z,5.31
2017-02-12T00:48:04.863Z,5.33
2017-02-12T00:49:15.252Z,5.37
2017-02-12T00:50:25.603Z,5.33
2017-02-12T00:51:36.347Z,5.41
2017-02-12T00:52:47.140Z,5.31
2017-02-12T00:53:57.503Z,5.34
2017-02-12T00:55:08.302Z,5.31
2017-02-12T00:56:18.638Z,5.36
2017-02-12T00:57:28.992Z,5.36
2017-02-12T00:58:39.355Z,5.36
2017-02-12T00:59:49.781Z,5.28
2017-02-12T01:01:00.520Z,5.37
2017-02-12T01:02:10.875Z,5.37
2017-02-12T01:03:21.216Z,5.37
2017-02-12T01:04:32.012Z,5.36
2017-02-12T01:05:42.365Z,5.37
2017-02-12T01:06:53.103Z,5.28
2017-02-12T01:08:03.839Z,5.34
2017-02-12T01:09:14.589Z,5.3
2017-02-12T01:10:25.335Z,5.44
2017-02-12T01:11:35.686Z,5.33
2017-02-12T01:12:46.050Z,5.37
2017-02-12T01:13:56.383Z,5.34
2017-02-12T01:15:06.741Z,5.3
2017-02-12T01:16:17.489Z,5.37
2017-02-12T01:17:28.258Z,5.36
2017-02-12T01:18:37.822Z,5.42
2017-02-12T01:19:48.577Z,5.3
2017-02-12T01:20:58.930Z,5.34
2017-02-12T01:22:09.671Z,5.31
2017-02-12T01:23:20.418Z,5.36
2017-02-12T01:24:31.163Z,5.2
2017-02-12T01:25:41.905Z,5.31
2017-02-12T01:26:52.667Z,5.23
2017-02-12T01:28:03.408Z,5.23
2017-02-12T01:29:13.750Z,5.21
2017-02-12T01:30:23.708Z,5.2
2017-02-12T01:31:33.659Z,5.18
2017-02-12T01:32:44.018Z,5.23
2017-02-12T01:33:54.368Z,5.13
2017-02-12T01:35:04.325Z,5.26
2017-02-12T01:36:15.070Z,5.21
2017-02-12T01:37:24.627Z,5.26
2017-02-12T01:38:34.988Z,5.2
2017-02-12T01:39:45.442Z,5.18
2017-02-12T01:40:55.398Z,5.2
2017-02-12T01:42:05.745Z,5.15
2017-02-12T01:43:16.492Z,5.13
2017-02-12T01:44:27.233Z,5.16
2017-02-12T01:45:37.171Z,5.13
2017-02-12T01:46:47.553Z,5.16
2017-02-12T01:47:58.299Z,5.06
2017-02-12T01:49:08.244Z,5.08
2017-02-12T01:50:18.992Z,5.15
2017-02-12T01:51:29.344Z,5.1
2017-02-12T01:52:39.702Z,5.03
2017-02-12T01:53:49.652Z,5.05
2017-02-12T01:55:00.409Z,5.05
2017-02-12T01:56:11.164Z,5.06
2017-02-12T01:57:21.530Z,5.06
2017-02-12T01:58:32.273Z,5.09
2017-02-12T01:59:43.021Z,5.12
2017-02-12T02:00:53.373Z,5.15
2017-02-12T02:02:03.726Z,5.09
2017-02-12T02:03:14.070Z,5.09
2017-02-12T02:04:24.024Z,5.02
2017-02-12T02:05:34.363Z,5.06
2017-02-12T02:06:44.312Z,5.09
2017-02-12T02:07:53.877Z,5.12
2017-02-12T02:09:03.839Z,5.06
2017-02-12T02:10:14.576Z,5.05
2017-02-12T02:11:24.927Z,5
2017-02-12T02:12:35.278Z,5.05
2017-02-12T02:13:46.024Z,5.03
2017-02-12T02:14:56.769Z,4.97
2017-02-12T02:16:07.518Z,5.12
2017-02-12T02:17:17.872Z,5.03
2017-02-12T02:18:27.823Z,5.02
2017-02-12T02:19:37.780Z,5.03
2017-02-12T02:20:48.513Z,5.09
2017-02-12T02:21:58.871Z,4.95
2017-02-12T02:23:09.616Z,5.03
2017-02-12T02:24:19.963Z,4.97
2017-02-12T02:25:30.309Z,5.09
2017-02-12T02:26:41.090Z,5.06
2017-02-12T02:27:51.845Z,4.98
2017-02-12T02:29:02.202Z,4.98
2017-02-12T02:30:12.229Z,5.03
2017-02-12T02:31:23.002Z,5.03
2017-02-12T02:32:33.759Z,5.03
2017-02-12T02:33:43.721Z,5.12
2017-02-12T02:34:54.460Z,5.12
2017-02-12T02:36:04.009Z,5.18
2017-02-12T02:37:14.768Z,5.09
2017-02-12T02:38:25.152Z,5.16
2017-02-12T02:39:35.908Z,5.2
2017-02-12T02:40:46.272Z,5.15
2017-02-12T02:41:56.611Z,5.12
2017-02-12T02:43:07.354Z,5.21
2017-02-12T02:44:18.098Z,5.16
2017-02-12T02:45:28.459Z,5.18
2017-02-12T02:46:38.801Z,5.16
2017-02-12T02:47:49.150Z,5.26
2017-02-12T02:48:59.113Z,5.27
2017-02-12T02:50:09.730Z,5.34
2017-02-12T02:51:20.148Z,5.3
2017-02-12T02:52:30.893Z,5.3
2017-02-12T02:53:41.640Z,5.28
2017-02-12T02:54:52.000Z,5.18
2017-02-12T02:56:02.753Z,5.26
2017-02-12T02:57:13.094Z,5.21
2017-02-12T02:58:23.436Z,5.21
2017-02-12T02:59:33.418Z,5.27
2017-02-12T03:00:43.826Z,5.2
2017-02-12T03:33:13.122Z,2.4
2017-02-12T03:34:23.457Z,2.4
2017-02-12T03:35:34.191Z,2.42
2017-02-12T03:36:44.123Z,2.45
2017-02-12T03:37:54.476Z,2.63
2017-02-12T03:39:04.818Z,2.59
2017-02-12T03:40:15.560Z,2.77
2017-02-12T03:41:25.917Z,2.9
2017-02-12T03:42:36.248Z,3.14
2017-02-12T03:43:46.594Z,3.27
2017-02-12T03:44:56.957Z,3.48
2017-02-12T03:46:07.702Z,3.51
2017-02-12T03:47:18.049Z,3.74
2017-02-12T03:48:28.010Z,3.86
2017-02-12T03:49:38.362Z,3.96
2017-02-12T03:50:49.095Z,4.1
2017-02-12T03:51:59.446Z,4.21
2017-02-12T03:53:10.201Z,4.18
2017-02-12T03:54:20.542Z,4.3
2017-02-12T03:55:31.301Z,4.39
2017-02-12T03:56:42.034Z,4.46
2017-02-12T03:57:52.777Z,4.47
2017-02-12T03:59:03.137Z,4.47
2017-02-12T04:00:13.475Z,4.51
2017-02-12T04:01:22.656Z,4.57
2017-02-12T04:02:33.210Z,4.6
2017-02-12T04:03:43.961Z,4.57
2017-02-12T04:04:54.704Z,4.65
2017-02-12T04:06:05.056Z,4.74
2017-02-12T04:07:15.791Z,4.57
2017-02-12T04:08:26.204Z,4.72
2017-02-12T04:09:36.943Z,4.74
2017-02-12T04:10:47.301Z,4.72
2017-02-12T04:11:58.046Z,4.66
2017-02-12T04:13:08.787Z,4.69
2017-02-12T04:14:19.609Z,4.66
2017-02-12T04:15:29.576Z,4.74
2017-02-12T04:16:40.317Z,4.68
2017-02-12T04:17:50.674Z,4.72
2017-02-12T04:19:01.027Z,4.71
2017-02-12T04:20:11.779Z,4.75
2017-02-12T04:21:22.370Z,4.72
2017-02-12T04:22:32.722Z,4.71
2017-02-12T04:23:43.481Z,4.74
2017-02-12T04:24:53.834Z,4.79
2017-02-12T04:26:04.627Z,4.83
2017-02-12T04:27:14.619Z,4.78
2017-02-12T04:28:24.976Z,4.84
2017-02-12T04:29:35.334Z,4.88
2017-02-12T04:30:45.696Z,4.83
2017-02-12T04:31:56.439Z,4.85
2017-02-12T04:33:06.780Z,4.76
2017-02-12T04:34:17.528Z,4.83
2017-02-12T04:35:27.884Z,4.84
2017-02-12T04:36:38.637Z,4.84
2017-02-12T04:37:48.184Z,4.83
2017-02-12T04:38:58.158Z,4.83
2017-02-12T04:40:07.714Z,4.79
2017-02-12T04:41:18.465Z,4.78
2017-02-12T04:42:29.220Z,4.79
2017-02-12T04:43:39.965Z,4.78
2017-02-12T04:44:50.713Z,4.85
2017-02-12T04:46:01.503Z,4.75
2017-02-12T04:47:11.858Z,4.87
2017-02-12T04:48:22.605Z,4.79
2017-02-12T04:49:33.346Z,4.76
2017-02-12T04:50:44.119Z,4.83
2017-02-12T04:51:54.073Z,4.84
2017-02-12T04:53:04.418Z,4.72
2017-02-12T04:54:15.151Z,4.71
2017-02-12T04:55:25.104Z,4.75
2017-02-12T04:56:35.473Z,4.71
2017-02-12T04:57:45.811Z,4.75
2017-02-12T04:58:55.771Z,4.68
2017-02-12T05:00:05.344Z,4.64
2017-02-12T05:01:15.687Z,4.69
2017-02-12T05:02:25.637Z,4.69
2017-02-12T05:03:35.587Z,4.72
2017-02-12T05:04:45.918Z,4.69
2017-02-12T05:05:56.655Z,4.71
2017-02-12T05:07:07.059Z,4.78
2017-02-12T05:08:17.399Z,4.78
2017-02-12T05:09:28.143Z,4.84
2017-02-12T05:10:38.886Z,4.74
2017-02-12T05:11:48.858Z,4.75
2017-02-12T05:12:59.600Z,4.78
2017-02-12T05:14:09.959Z,4.78
2017-02-12T05:15:20.323Z,4.84
2017-02-12T05:16:30.665Z,4.83
2017-02-12T05:17:41.417Z,4.83
2017-02-12T05:18:51.375Z,4.78
2017-02-12T05:20:01.336Z,4.79
2017-02-12T05:21:12.101Z,4.74
2017-02-12T05:22:22.442Z,4.78
2017-02-12T05:23:33.178Z,4.78
2017-02-12T05:24:43.983Z,4.75
2017-02-12T05:25:54.330Z,4.79
2017-02-12T05:27:05.070Z,4.78
2017-02-12T05:28:15.035Z,4.74
2017-02-12T05:29:25.377Z,4.69
2017-02-12T05:30:35.729Z,4.72
2017-02-12T05:31:46.472Z,4.69
2017-02-12T05:32:56.439Z,4.72
2017-02-12T05:34:07.219Z,4.75
2017-02-12T05:35:17.966Z,4.66
2017-02-12T05:36:28.714Z,4.74
2017-02-12T05:37:39.070Z,4.72
2017-02-12T05:38:49.418Z,4.76
2017-02-12T05:39:59.774Z,4.75
2017-02-12T05:41:09.780Z,4.74
2017-02-12T05:42:20.537Z,4.76
2017-02-12T05:43:30.875Z,4.69
2017-02-12T05:44:41.221Z,4.69
2017-02-12T05:45:51.188Z,4.74
2017-02-12T05:47:01.147Z,4.65
2017-02-12T05:48:11.923Z,4.71
2017-02-12T05:49:22.263Z,4.76
2017-02-12T05:50:33.012Z,4.65
2017-02-12T05:51:43.363Z,4.69
2017-02-12T05:52:53.703Z,4.74
2017-02-12T05:54:04.044Z,4.69
2017-02-12T05:55:14.385Z,4.74
2017-02-12T05:56:25.144Z,4.74
2017-02-12T05:57:35.495Z,4.75
2017-02-12T05:58:46.248Z,4.78
2017-02-12T05:59:57.030Z,4.74
2017-02-12T06:01:07.384Z,4.74
2017-02-12T06:02:17.730Z,4.78
2017-02-12T06:03:28.474Z,4.76
2017-02-12T06:04:39.221Z,4.75
2017-02-12T06:05:49.196Z,4.71
2017-02-12T06:06:59.174Z,4.84
2017-02-12T06:08:09.929Z,4.79
2017-02-12T06:09:20.667Z,4.71
2017-02-12T06:10:31.404Z,4.83
2017-02-12T06:11:41.404Z,4.83
2017-02-12T06:12:51.737Z,4.85
2017-02-12T06:14:02.080Z,4.88
2017-02-12T06:15:12.818Z,4.84
2017-02-12T06:16:23.389Z,4.9
2017-02-12T06:17:33.731Z,4.85
2017-02-12T06:18:43.300Z,4.85
2017-02-12T06:19:53.651Z,4.85
2017-02-12T06:21:03.994Z,4.78
2017-02-12T06:22:13.957Z,4.79
2017-02-12T06:23:24.695Z,4.9
2017-02-12T06:24:35.051Z,4.95
2017-02-12T06:25:45.801Z,4.84
2017-02-12T06:26:56.553Z,4.97
2017-02-12T06:28:07.154Z,5
2017-02-12T06:29:17.090Z,4.97
2017-02-12T06:30:27.822Z,4.79
2017-02-12T06:31:37.373Z,4.84
2017-02-12T06:32:47.755Z,4.87
2017-02-12T06:33:58.494Z,4.92
2017-02-12T06:35:09.270Z,4.83
2017-02-12T06:36:20.018Z,4.88
2017-02-12T06:37:30.764Z,4.9
2017-02-12T06:38:41.499Z,4.85
2017-02-12T06:39:51.857Z,4.85
2017-02-12T06:41:02.597Z,4.87
2017-02-12T06:42:13.365Z,4.9
2017-02-12T06:43:24.101Z,4.79
2017-02-12T06:44:34.444Z,4.78
2017-02-12T06:45:44.405Z,4.85
2017-02-12T06:46:55.153Z,4.76
2017-02-12T06:48:05.117Z,4.76
2017-02-12T06:49:15.513Z,4.84
2017-02-12T06:50:26.258Z,4.85
2017-02-12T06:51:37.012Z,4.85
2017-02-12T06:52:47.811Z,4.84
2017-02-12T06:53:57.768Z,4.83
2017-02-12T06:55:07.736Z,4.83
2017-02-12T06:56:18.085Z,4.85
2017-02-12T06:57:28.830Z,4.92
2017-02-12T06:58:39.586Z,4.87
2017-02-12T06:59:49.930Z,4.95
2017-02-12T07:01:00.678Z,4.9
2017-02-12T07:02:11.020Z,4.85
2017-02-12T07:03:21.761Z,4.9
2017-02-12T07:04:32.505Z,4.87
2017-02-12T07:05:43.248Z,4.84
2017-02-12T07:06:53.811Z,4.79
2017-02-12T07:08:04.560Z,4.88
2017-02-12T07:09:14.919Z,4.97
2017-02-12T07:10:25.667Z,4.97
2017-02-12T07:11:35.230Z,5
2017-02-12T07:12:45.980Z,4.98
2017-02-12T07:13:56.745Z,5.09
2017-02-12T07:15:07.484Z,4.94
2017-02-12T07:16:17.426Z,5.02
2017-02-12T07:17:27.768Z,5.06
2017-02-12T07:18:38.142Z,5.13
2017-02-12T07:19:48.890Z,5.05
2017-02-12T07:20:59.628Z,5.12
2017-02-12T07:22:09.974Z,5.09
2017-02-12T07:23:20.706Z,5.16
2017-02-12T07:24:31.057Z,5.13
2017-02-12T07:25:41.394Z,5.21
2017-02-12T07:26:52.132Z,5.26
2017-02-12T07:28:02.090Z,5.26
2017-02-12T07:29:12.440Z,5.31
2017-02-12T07:30:23.190Z,5.39
2017-02-12T07:31:33.954Z,5.31
2017-02-12T07:32:44.685Z,5.39
2017-02-12T07:33:55.482Z,5.27
2017-02-12T07:35:06.213Z,5.36
2017-02-12T07:36:16.974Z,5.42
2017-02-12T07:37:27.346Z,5.44
2017-02-12T07:38:37.297Z,5.44
2017-02-12T07:39:47.257Z,5.45
2017-02-12T07:40:58.011Z,5.48
2017-02-12T07:42:08.777Z,5.54
2017-02-12T07:43:19.195Z,5.48
2017-02-12T07:44:29.976Z,5.57
2017-02-12T07:45:40.729Z,5.57
2017-02-12T07:46:50.689Z,5.63
2017-02-12T07:48:01.462Z,5.67
2017-02-12T07:49:12.203Z,5.67
2017-02-12T07:50:22.167Z,5.73
2017-02-12T07:51:32.921Z,5.73
2017-02-12T07:52:43.657Z,5.63
2017-02-12T07:53:53.604Z,5.82
2017-02-12T07:55:03.553Z,5.78
2017-02-12T07:56:13.505Z,5.96
2017-02-12T07:57:23.906Z,5.85
2017-02-12T07:58:33.482Z,5.89
2017-02-12T07:59:44.229Z,6.02
2017-02-12T08:00:54.961Z,6
2017-02-12T08:02:05.718Z,6.07
2017-02-12T08:03:16.064Z,6.05
2017-02-12T08:04:26.426Z,6.13
2017-02-12T08:05:37.227Z,6.2
2017-02-12T08:06:47.982Z,6.15
2017-02-12T08:07:58.341Z,6.29
2017-02-12T08:09:08.748Z,6.31
2017-02-12T08:10:19.494Z,6.34
2017-02-12T08:11:29.839Z,6.44
2017-02-12T08:12:40.189Z,6.52
2017-02-12T08:13:50.925Z,6.51
2017-02-12T08:15:00.489Z,6.4
2017-02-12T08:16:10.463Z,6.51
2017-02-12T08:17:20.818Z,6.57
2017-02-12T08:18:30.787Z,6.54
2017-02-12T08:19:41.145Z,6.52
2017-02-12T08:20:51.113Z,6.52
2017-02-12T08:22:01.462Z,6.54
2017-02-12T08:23:11.815Z,6.61
2017-02-12T08:24:22.201Z,6.68
2017-02-12T08:25:32.579Z,6.72
2017-02-12T08:26:43.317Z,6.73
2017-02-12T08:27:54.067Z,6.73
2017-02-12T08:29:04.418Z,6.73
2017-02-12T08:30:14.778Z,6.62
2017-02-12T08:31:25.518Z,6.76
2017-02-12T08:32:35.882Z,6.78
2017-02-12T08:33:46.247Z,6.6
2017-02-12T08:34:56.229Z,6.6
2017-02-12T08:36:06.585Z,6.54
2017-02-12T08:37:16.139Z,6.54
2017-02-12T08:38:26.881Z,6.57
2017-02-12T08:39:37.236Z,6.57
2017-02-12T08:40:47.990Z,6.54
2017-02-12T08:41:58.737Z,6.54
2017-02-12T08:43:09.484Z,6.52
2017-02-12T08:44:19.903Z,6.65
2017-02-12T08:45:30.235Z,6.64
2017-02-12T08:46:40.573Z,6.7
2017-02-12T08:47:50.934Z,6.62
2017-02-12T08:49:01.298Z,6.61
2017-02-12T08:50:12.115Z,6.65
2017-02-12T08:51:22.855Z,6.68
2017-02-12T08:52:33.607Z,6.7
2017-02-12T08:53:43.958Z,6.76
2017-02-12T08:54:54.712Z,6.64
2017-02-12T08:56:05.091Z,6.76
2017-02-12T08:57:14.658Z,6.76
2017-02-12T08:58:25.400Z,6.7
2017-02-12T08:59:35.359Z,6.65
2017-02-12T09:00:46.134Z,6.68
2017-02-12T09:01:55.755Z,6.62
2017-02-12T09:03:06.102Z,6.64
2017-02-12T09:04:16.473Z,6.62
2017-02-12T09:05:26.429Z,6.64
2017-02-12T09:06:37.186Z,6.6
2017-02-12T09:07:47.590Z,6.7
2017-02-12T09:08:57.567Z,6.68
2017-02-12T09:10:07.941Z,6.7
2017-02-12T09:11:18.287Z,6.7
2017-02-12T09:12:29.038Z,6.64
2017-02-12T09:13:39.398Z,6.72
2017-02-12T09:14:50.150Z,6.67
2017-02-12T09:16:00.108Z,6.68
2017-02-12T09:17:10.068Z,6.78
2017-02-12T09:18:20.414Z,6.9
2017-02-12T09:19:30.417Z,6.91
2017-02-12T09:20:41.219Z,6.91
2017-02-12T09:21:51.556Z,6.95
2017-02-12T09:23:01.525Z,6.97
2017-02-12T09:24:12.310Z,7.01
2017-02-12T09:25:22.678Z,7.03
2017-02-12T09:26:32.648Z,7.05
2017-02-12T09:27:42.627Z,7.11
2017-02-12T09:28:53.371Z,7.11
2017-02-12T09:30:02.940Z,7.01
2017-02-12T09:31:13.683Z,7
2017-02-12T09:32:24.055Z,7.11
2017-02-12T09:33:33.617Z,7.05
2017-02-12T09:34:44.366Z,7
2017-02-12T09:35:54.757Z,7.11
2017-02-12T09:37:05.537Z,7.09
2017-02-12T09:38:15.496Z,7.22
2017-02-12T09:39:25.445Z,7.27
2017-02-12T09:40:36.181Z,7.26
2017-02-12T09:41:46.541Z,7.36
2017-02-12T09:42:57.291Z,7.33
2017-02-12T09:44:08.083Z,7.36
2017-02-12T09:45:18.446Z,7.39
2017-02-12T09:46:29.196Z,7.39
2017-02-12T09:47:39.940Z,7.48
2017-02-12T09:48:50.307Z,7.51
2017-02-12T09:50:00.679Z,7.48
2017-02-12T09:51:11.436Z,7.48
2017-02-12T09:52:21.403Z,7.47
2017-02-12T09:53:31.383Z,7.41
2017-02-12T09:54:42.148Z,7.44
2017-02-12T09:55:52.912Z,7.54
2017-02-12T09:57:02.863Z,7.64
2017-02-12T09:58:13.624Z,7.59
2017-02-12T09:59:23.199Z,7.63
2017-02-12T10:00:34.038Z,7.59
2017-02-12T10:01:44.368Z,7.64
2017-02-12T10:02:54.709Z,7.64
2017-02-12T10:04:05.071Z,7.68
2017-02-12T10:05:15.413Z,7.58
2017-02-12T10:06:25.370Z,7.54
2017-02-12T10:07:35.364Z,7.59
2017-02-12T10:08:46.126Z,7.64
2017-02-12T10:09:56.498Z,7.68
2017-02-12T10:11:06.847Z,7.71
2017-02-12T10:12:17.205Z,7.71
2017-02-12T10:13:27.954Z,7.74
2017-02-12T10:14:38.320Z,7.8
2017-02-12T10:15:48.268Z,7.8
2017-02-12T10:16:57.849Z,7.8
2017-02-12T10:18:08.601Z,7.85
2017-02-12T10:19:19.345Z,7.83
2017-02-12T10:20:29.710Z,7.88
2017-02-12T10:21:39.288Z,7.93
2017-02-12T10:29:11.053Z,8.32
2017-02-12T10:30:21.017Z,8.39
2017-02-12T10:34:03.393Z,8.5
2017-02-12T10:35:13.750Z,8.52
2017-02-12T10:36:23.708Z,8.4
2017-02-12T10:37:34.453Z,8.35
2017-02-12T10:38:45.199Z,8.42
2017-02-12T10:39:55.563Z,8.44
2017-02-12T10:41:05.917Z,8.31
2017-02-12T10:42:16.676Z,8.39
2017-02-12T10:43:26.639Z,8.35
2017-02-12T10:44:37.378Z,8.35
2017-02-12T10:45:47.344Z,8.43
2017-02-12T10:46:57.699Z,8.44
2017-02-12T10:48:08.449Z,8.4
2017-02-12T10:49:19.200Z,8.31
2017-02-12T10:50:29.617Z,8.34
2017-02-12T10:51:40.372Z,8.29
2017-02-12T10:52:51.121Z,8.21
2017-02-12T10:54:01.880Z,8.14
2017-02-12T10:55:12.226Z,8.31
2017-02-12T10:56:22.581Z,8.32
2017-02-12T10:57:33.372Z,8.43
2017-02-12T10:58:44.120Z,8.47
2017-02-12T10:59:54.086Z,8.57
2017-02-12T11:01:04.824Z,8.72
2017-02-12T11:02:15.571Z,8.77
2017-02-12T11:03:25.536Z,8.79
2017-02-12T11:04:36.295Z,8.94
2017-02-12T11:05:46.638Z,8.97
2017-02-12T11:06:56.992Z,8.9
2017-02-12T11:08:07.355Z,9.12
2017-02-12T11:09:18.109Z,9.12
2017-02-12T11:10:28.071Z,9.16
2017-02-12T11:11:38.042Z,9.23
2017-02-12T11:12:48.400Z,9.21
2017-02-12T11:13:58.755Z,9.26
2017-02-12T11:15:09.122Z,9.38
2017-02-12T11:16:19.860Z,9.56
2017-02-12T11:17:30.230Z,9.66
2017-02-12T11:18:40.990Z,9.77
2017-02-12T11:19:51.735Z,9.71
2017-02-12T11:21:02.081Z,9.74
2017-02-12T11:22:12.828Z,9.71
2017-02-12T11:23:23.635Z,9.53
2017-02-12T11:24:33.997Z,9.52
2017-02-12T11:25:44.756Z,9.53
2017-02-12T11:26:55.503Z,9.55
2017-02-12T11:28:06.258Z,9.38
2017-02-12T11:29:17.006Z,9.32
2017-02-12T11:30:27.382Z,9.35
2017-02-12T11:31:38.139Z,9.17
2017-02-12T11:32:48.929Z,9.29
2017-02-12T11:33:59.677Z,9.19
2017-02-12T11:35:09.628Z,9.32
2017-02-12T11:36:20.379Z,9.27
2017-02-12T11:37:30.356Z,9.26
2017-02-12T11:38:41.100Z,9.26
2017-02-12T11:39:51.465Z,9.27
2017-02-12T11:41:01.442Z,9.24
2017-02-12T11:42:11.795Z,9.24
2017-02-12T11:43:22.153Z,9.27
2017-02-12T11:44:32.965Z,9.38
2017-02-12T11:45:42.938Z,9.39
2017-02-12T11:46:53.281Z,9.32
2017-02-12T11:48:04.039Z,9.32
2017-02-12T11:49:14.397Z,9.38
2017-02-12T11:50:25.144Z,9.26
2017-02-12T11:51:35.108Z,9.27
2017-02-12T11:52:45.468Z,9.17
2017-02-12T11:53:56.215Z,9.17
2017-02-12T11:55:06.972Z,9.11
2017-02-12T11:56:17.363Z,8.92
2017-02-12T11:57:27.331Z,8.85
2017-02-12T11:58:37.712Z,8.76
2017-02-12T11:59:48.466Z,8.8
2017-02-12T12:00:59.213Z,8.68
2017-02-12T12:02:09.568Z,8.61
2017-02-12T12:03:20.330Z,8.6
2017-02-12T12:04:31.095Z,8.44
2017-02-12T12:05:41.851Z,8.43
2017-02-12T12:06:52.209Z,8.46
2017-02-12T12:08:03.007Z,8.46
2017-02-12T12:09:13.382Z,8.5
2017-02-12T12:10:23.739Z,8.42
2017-02-12T12:11:34.527Z,8.34
2017-02-12T12:12:45.273Z,8.44
2017-02-12T12:13:55.684Z,8.39
2017-02-12T12:15:06.080Z,8.42
2017-02-12T12:16:16.445Z,8.39
2017-02-12T12:17:26.805Z,8.34
2017-02-12T12:18:37.546Z,8.32
2017-02-12T12:19:47.520Z,8.31
2017-02-12T12:20:57.897Z,8.44
2017-02-12T12:22:08.657Z,8.4
2017-02-12T12:23:19.023Z,8.4
2017-02-12T12:24:29.386Z,8.34
2017-02-12T12:25:40.142Z,8.31
2017-02-12T12:26:50.506Z,8.47
2017-02-12T12:28:00.087Z,8.47
2017-02-12T12:29:10.848Z,8.49
2017-02-12T12:30:20.810Z,8.42
2017-02-12T12:31:31.565Z,8.49
2017-02-12T12:32:42.328Z,8.49
2017-02-12T12:33:53.095Z,8.43
2017-02-12T12:35:03.832Z,8.46
2017-02-12T12:36:14.587Z,8.44
2017-02-12T12:37:25.403Z,8.49
2017-02-12T12:38:35.386Z,8.46
2017-02-12T12:39:46.152Z,8.44
2017-02-12T12:40:56.935Z,8.46
2017-02-12T12:42:07.306Z,8.49
2017-02-12T12:43:16.849Z,8.4
2017-02-12T12:44:26.804Z,8.35
2017-02-12T12:45:36.768Z,8.43
2017-02-12T12:46:47.107Z,8.43
2017-02-12T12:47:57.469Z,8.42
2017-02-12T12:49:07.826Z,8.44
2017-02-12T12:50:18.183Z,8.4
2017-02-12T12:51:28.529Z,8.44
2017-02-12T12:52:39.286Z,8.42
2017-02-12T12:53:49.693Z,8.47
2017-02-12T12:55:00.508Z,8.4
2017-02-12T12:56:10.879Z,8.44
2017-02-12T12:57:21.223Z,8.52
2017-02-12T12:58:31.576Z,8.58
2017-02-12T12:59:41.138Z,8.43
2017-02-12T13:00:51.498Z,8.44
2017-02-12T13:02:02.256Z,8.5
2017-02-12T13:03:12.991Z,8.36
2017-02-12T13:04:22.958Z,8.36
2017-02-12T13:05:33.303Z,8.39
2017-02-12T13:06:44.115Z,8.34
2017-02-12T13:07:54.870Z,8.52
2017-02-12T13:09:05.621Z,8.43
2017-02-12T13:10:16.393Z,8.44
2017-02-12T13:11:26.365Z,8.49
2017-02-12T13:12:37.174Z,8.54
2017-02-12T13:13:47.529Z,8.54
2017-02-12T13:14:57.939Z,8.58
2017-02-12T13:16:08.311Z,8.64
2017-02-12T13:17:18.669Z,8.67
2017-02-12T13:18:29.424Z,8.67
2017-02-12T13:19:39.384Z,8.67
2017-02-12T13:20:50.125Z,8.68
2017-02-12T13:22:00.093Z,8.71
2017-02-12T13:23:10.446Z,8.89
2017-02-12T13:24:20.399Z,8.77
2017-02-12T13:25:31.157Z,8.98
2017-02-12T13:26:41.908Z,9.01
2017-02-12T13:27:51.877Z,9
2017-02-12T13:29:02.615Z,9.04
2017-02-12T13:30:13.374Z,9.17
2017-02-12T13:31:23.719Z,9.12
2017-02-12T13:32:34.086Z,9.09
2017-02-12T13:33:44.455Z,9.09
2017-02-12T13:34:54.833Z,9.05
2017-02-12T13:36:05.601Z,9.09
2017-02-12T13:37:15.976Z,9.11
2017-02-12T13:38:26.728Z,9.11
2017-02-12T13:39:37.082Z,9.19
2017-02-12T13:40:47.833Z,9.23
2017-02-12T13:41:57.899Z,9.16
2017-02-12T13:43:09.159Z,9.14
2017-02-12T13:44:19.129Z,9.14
2017-02-12T13:45:29.485Z,9.14
2017-02-12T13:46:40.221Z,9.14
2017-02-12T13:47:50.956Z,9.19
2017-02-12T13:49:01.699Z,9.19
2017-02-12T13:50:12.457Z,9.16
2017-02-12T13:51:23.210Z,9.11
2017-02-12T13:52:33.565Z,9.16
2017-02-12T13:53:44.345Z,9.03
2017-02-12T13:54:55.103Z,9.04
2017-02-12T13:56:05.489Z,8.95
2017-02-12T13:57:15.867Z,8.97
2017-02-12T13:58:26.621Z,9.14
2017-02-12T13:59:37.397Z,9
2017-02-12T14:00:48.173Z,9.08
2017-02-12T14:01:58.177Z,8.97
2017-02-12T14:03:08.929Z,8.97
2017-02-12T14:04:18.898Z,8.92
2017-02-12T14:05:29.668Z,8.77
2017-02-12T14:06:40.407Z,8.79
2017-02-12T14:07:50.778Z,8.8
2017-02-12T14:09:01.135Z,8.82
2017-02-12T14:10:11.915Z,8.68
2017-02-12T14:11:22.303Z,8.72
2017-02-12T14:12:33.070Z,8.67
2017-02-12T14:13:43.436Z,8.58
2017-02-12T14:14:54.239Z,8.58
2017-02-12T14:16:04.987Z,8.54
2017-02-12T14:17:15.367Z,8.54
2017-02-12T14:18:26.149Z,8.57
2017-02-12T14:19:36.105Z,8.46
2017-02-12T14:20:46.855Z,8.53
2017-02-12T14:21:57.613Z,8.46
2017-02-12T14:23:08.416Z,8.43
2017-02-12T14:24:18.782Z,8.4
2017-02-12T14:25:28.778Z,8.34
2017-02-12T14:26:39.545Z,8.34
2017-02-12T14:27:50.318Z,8.25
2017-02-12T14:29:00.746Z,8.32
2017-02-12T14:30:11.195Z,8.28
2017-02-12T14:31:21.957Z,8.19
2017-02-12T14:32:31.943Z,8.16
2017-02-12T14:33:42.731Z,8.04
2017-02-12T14:34:52.735Z,8.14
2017-02-12T14:36:02.312Z,8.13
2017-02-12T14:37:12.686Z,8.21
2017-02-12T14:38:23.477Z,8.1
2017-02-12T14:39:34.249Z,8.13
2017-02-12T14:40:44.222Z,8.11
2017-02-12T14:41:54.210Z,8.14
2017-02-12T14:43:04.635Z,8.16
2017-02-12T14:44:14.617Z,8.09
2017-02-12T14:45:25.374Z,8.11
2017-02-12T14:46:35.830Z,8.09
2017-02-12T14:47:45.825Z,8.17
2017-02-12T14:48:56.627Z,8.07
2017-02-12T14:50:07.393Z,8.07
2017-02-12T14:51:17.801Z,8.11
2017-02-12T14:52:28.585Z,8.11
2017-02-12T14:53:39.346Z,8.01
2017-02-12T14:54:49.706Z,8.04
2017-02-12T14:56:00.067Z,8.06
2017-02-12T14:57:10.059Z,7.98
2017-02-12T14:58:20.091Z,7.95
2017-02-12T14:59:30.879Z,8.01
2017-02-12T15:00:41.644Z,8.01
2017-02-12T15:01:52.003Z,7.95
2017-02-12T15:03:02.748Z,7.91
2017-02-12T15:04:13.155Z,7.93
2017-02-12T15:05:23.518Z,7.98
2017-02-12T15:06:33.093Z,7.93
2017-02-12T15:07:43.875Z,7.98
2017-02-12T15:08:54.261Z,7.95
2017-02-12T15:10:05.022Z,7.93
2017-02-12T15:11:15.830Z,7.92
2017-02-12T15:12:26.657Z,7.88
2017-02-12T15:13:36.648Z,7.88
2017-02-12T15:14:47.029Z,7.89
2017-02-12T15:15:58.030Z,7.88
2017-02-12T15:17:07.639Z,7.88
2017-02-12T15:18:17.662Z,7.89
2017-02-12T15:19:28.026Z,7.83
2017-02-12T15:20:38.816Z,7.78
2017-02-12T15:21:49.231Z,7.83
2017-02-12T15:22:59.611Z,7.75
2017-02-12T15:24:09.974Z,7.67
2017-02-12T15:25:19.157Z,7.74
2017-02-12T15:26:29.504Z,7.7
2017-02-12T15:27:40.304Z,7.61
2017-02-12T15:28:50.671Z,7.61
2017-02-12T15:30:01.444Z,7.58
2017-02-12T15:31:11.825Z,7.64
2017-02-12T15:32:22.581Z,7.51
2017-02-12T15:33:32.942Z,7.51
2017-02-12T15:34:43.294Z,7.61
2017-02-12T15:35:53.679Z,7.55
2017-02-12T15:37:04.472Z,7.54
2017-02-12T15:38:14.454Z,7.47
2017-02-12T15:39:25.308Z,7.48
2017-02-12T15:40:35.732Z,7.49
2017-02-12T15:41:45.708Z,7.45
2017-02-12T15:42:56.487Z,7.49
2017-02-12T15:44:06.856Z,7.47
2017-02-12T15:45:17.640Z,7.36
2017-02-12T15:46:28.006Z,7.48
2017-02-12T15:47:37.972Z,7.44
2017-02-12T15:48:47.936Z,7.36
2017-02-12T15:49:58.301Z,7.33
2017-02-12T15:51:09.095Z,7.33
2017-02-12T15:52:19.875Z,7.29
2017-02-12T15:53:30.624Z,7.19
2017-02-12T15:54:41.386Z,7.21
2017-02-12T15:55:52.136Z,7.21
2017-02-12T15:57:02.883Z,7.26
2017-02-12T15:58:13.629Z,7.29
2017-02-12T15:59:24.384Z,7.21
2017-02-12T16:00:34.367Z,7.13
2017-02-12T16:01:44.740Z,7.05
2017-02-12T16:02:54.706Z,7.11
2017-02-12T16:04:05.091Z,7.13
2017-02-12T16:05:15.840Z,7.19
2017-02-12T16:06:26.223Z,7.04
2017-02-12T16:07:36.992Z,7.01
2017-02-12T16:08:47.766Z,7.01
2017-02-12T16:09:58.518Z,6.97
2017-02-12T16:11:08.934Z,7
2017-02-12T16:12:18.899Z,6.97
2017-02-12T16:13:29.278Z,6.97
2017-02-12T16:14:40.112Z,6.88
2017-02-12T16:15:50.081Z,6.91
2017-02-12T16:17:00.842Z,6.93
2017-02-12T16:18:11.610Z,6.98
2017-02-12T16:19:21.998Z,6.94
2017-02-12T16:20:32.001Z,6.94
2017-02-12T16:21:42.745Z,6.95